Time;durP1;ratioP1;P1;durP2;ratioP2;P2;SDS_P1;SDS_P2;PMS_P1;PMS_P2;Temp;Humidity;BMP_temperature;BMP_pressure;BME280_temperature;BME280_humidity;BME280_pressure;Samples;Min_cycle;Max_cycle;Signal;HPM_P1;HPM_P2
2023/09/28 00:01:38;;;;;;;47.50;17.90;;;;;;;15.75;58.23;101820.29;107541;1253;109533;-62
2023/09/28 00:04:07;;;;;;;31.50;16.20;;;;;;;15.73;58.38;101817.42;107568;1252;107534;-62
2023/09/28 00:06:35;;;;;;;40.20;16.40;;;;;;;15.71;58.37;101817.64;107569;1254;97842;-62
2023/09/28 00:09:04;;;;;;;36.60;16.10;;;;;;;15.68;58.54;101809.93;107579;1253;98359;-62
2023/09/28 00:11:32;;;;;;;30.70;14.50;;;;;;;15.65;58.42;101816.18;107602;1255;111662;-62
2023/09/28 00:14:00;;;;;;;34.80;14.50;;;;;;;15.62;58.56;101811.34;107584;1252;109403;-63
2023/09/28 00:16:29;;;;;;;38.90;15.40;;;;;;;15.60;58.62;101814.33;107552;1256;106677;-62
2023/09/28 00:18:57;;;;;;;29.20;14.10;;;;;;;15.55;58.75;101815.80;107518;1254;97868;-61
2023/09/28 00:21:26;;;;;;;39.30;14.90;;;;;;;15.53;59.03;101810.63;107576;1253;97788;-61
2023/09/28 00:23:54;;;;;;;36.50;14.40;;;;;;;15.49;59.17;101812.60;107517;1251;111362;-61
2023/09/28 00:26:23;;;;;;;32.90;14.60;;;;;;;15.48;59.46;101813.24;107616;1254;110082;-61
2023/09/28 00:28:51;;;;;;;38.40;13.90;;;;;;;15.47;59.48;101813.62;107506;1251;107722;-63
2023/09/28 00:31:19;;;;;;;31.50;13.90;;;;;;;15.48;59.75;101814.34;107543;1256;97948;-62
2023/09/28 00:33:48;;;;;;;29.30;13.00;;;;;;;15.50;59.98;101819.40;107636;1253;97723;-62
2023/09/28 00:36:17;;;;;;;33.70;13.60;;;;;;;15.51;60.28;101816.96;107546;1254;111979;-63
2023/09/28 00:38:47;;;;;;;27.40;12.40;;;;;;;15.51;60.52;101821.82;107553;1254;109659;-63
2023/09/28 00:41:16;;;;;;;28.50;12.60;;;;;;;15.51;60.49;101819.99;107522;1254;108123;-61
2023/09/28 00:43:45;;;;;;;41.90;13.40;;;;;;;15.52;60.39;101819.36;107585;1253;97837;-62
2023/09/28 00:46:16;;;;;;;28.00;12.30;;;;;;;15.52;60.59;101821.36;107578;1254;97842;-62
2023/09/28 00:49:00;;;;;;;35.20;12.70;;;;;;;15.49;60.67;101818.92;107589;1254;112185;-62
2023/09/28 00:51:31;;;;;;;35.70;13.00;;;;;;;15.48;60.60;101821.92;107528;1254;109969;-62
2023/09/28 00:54:00;;;;;;;37.90;13.20;;;;;;;15.49;60.65;101818.75;107563;1256;108550;-62
2023/09/28 00:56:30;;;;;;;29.90;12.50;;;;;;;15.50;60.72;101817.23;107592;1254;97847;-62
2023/09/28 00:59:00;;;;;;;39.40;12.90;;;;;;;15.50;60.75;101816.29;107587;1254;98457;-62
2023/09/28 01:01:29;;;;;;;33.60;13.10;;;;;;;15.51;60.93;101815.34;107569;1254;111092;-62
2023/09/28 01:04:04;;;;;;;36.90;13.20;;;;;;;15.53;60.93;101816.42;107576;1254;108298;-62
2023/09/28 01:06:35;;;;;;;26.30;11.50;;;;;;;15.53;61.26;101815.67;107509;1254;108053;-61
2023/09/28 01:09:09;;;;;;;25.00;10.80;;;;;;;15.50;61.51;101820.10;107523;1254;97725;-63
2023/09/28 01:11:40;;;;;;;38.90;11.70;;;;;;;15.48;61.40;101821.54;107573;1253;97867;-62
2023/09/28 01:14:09;;;;;;;36.80;12.60;;;;;;;15.48;61.38;101821.21;107539;1254;111799;-63
2023/09/28 01:16:39;;;;;;;33.40;11.90;;;;;;;15.46;61.51;101823.50;107587;1254;109544;-61
2023/09/28 01:19:09;;;;;;;31.00;11.20;;;;;;;15.44;61.48;101823.84;107533;1252;108579;-62
2023/09/28 01:21:37;;;;;;;21.00;11.10;;;;;;;15.42;61.84;101830.91;107616;1255;97856;-61
2023/09/28 01:24:06;;;;;;;25.10;10.90;;;;;;;15.38;61.81;101836.56;107593;1252;97739;-62
2023/09/28 01:26:34;;;;;;;36.50;11.50;;;;;;;15.36;61.79;101837.66;107541;1252;112261;-62
2023/09/28 01:29:02;;;;;;;30.00;11.70;;;;;;;15.34;61.83;101831.14;107576;1254;109666;-63
2023/09/28 01:31:32;;;;;;;38.60;10.70;;;;;;;15.31;61.66;101831.88;107526;1254;107718;-62
2023/09/28 01:34:00;;;;;;;32.80;11.00;;;;;;;15.29;61.39;101835.19;107625;1255;97837;-62
2023/09/28 01:36:28;;;;;;;25.30;10.40;;;;;;;15.28;61.36;101839.11;107614;1254;97804;-62
2023/09/28 01:39:00;;;;;;;32.70;11.90;;;;;;;15.28;61.48;101840.00;107595;1254;111760;-62
2023/09/28 01:41:29;;;;;;;29.40;11.70;;;;;;;15.27;61.39;101840.25;107612;1254;109933;-62
2023/09/28 01:43:57;;;;;;;30.50;11.20;;;;;;;15.26;61.42;101846.65;107526;1255;107196;-62
2023/09/28 01:46:25;;;;;;;23.70;10.80;;;;;;;15.27;61.52;101843.02;107533;1254;97835;-62
2023/09/28 01:48:54;;;;;;;24.10;11.00;;;;;;;15.27;61.61;101837.96;107604;1254;99650;-62
2023/09/28 01:51:22;;;;;;;32.50;11.20;;;;;;;15.25;61.42;101841.33;107536;1254;111431;-62
2023/09/28 01:53:50;;;;;;;30.10;11.10;;;;;;;15.24;61.47;101837.88;107574;1253;109999;-62
2023/09/28 01:56:21;;;;;;;23.10;10.90;;;;;;;15.22;61.50;101838.23;107580;1254;106873;-61
2023/09/28 01:58:49;;;;;;;25.50;11.80;;;;;;;15.20;61.65;101843.61;107509;1253;97825;-62
2023/09/28 02:01:22;;;;;;;30.40;10.90;;;;;;;15.18;61.72;101843.26;107573;1253;97840;-62
2023/09/28 02:03:51;;;;;;;22.50;9.80;;;;;;;15.15;61.87;101843.13;107662;1254;111001;-61
2023/09/28 02:06:19;;;;;;;29.20;11.00;;;;;;;15.13;62.01;101843.14;107525;1254;108857;-61
2023/09/28 02:08:47;;;;;;;22.20;10.80;;;;;;;15.13;62.23;101844.95;107548;1256;107766;-63
2023/09/28 02:11:15;;;;;;;25.70;10.40;;;;;;;15.13;62.28;101851.69;107512;1253;97851;-61
2023/09/28 02:13:44;;;;;;;34.40;9.40;;;;;;;15.13;62.35;101854.04;107575;1254;97982;-62
2023/09/28 02:16:13;;;;;;;25.60;9.80;;;;;;;15.14;62.44;101853.39;107587;1254;111993;-61
2023/09/28 02:18:42;;;;;;;22.60;9.40;;;;;;;15.16;62.56;101852.60;107619;1254;108840;-62
2023/09/28 02:21:14;;;;;;;30.60;9.80;;;;;;;15.19;62.64;101856.88;107564;1254;108464;-61
2023/09/28 02:23:42;;;;;;;23.70;10.00;;;;;;;15.21;62.74;101857.23;107584;1253;97926;-62
2023/09/28 02:26:10;;;;;;;21.90;9.90;;;;;;;15.25;62.63;101861.07;107585;1251;98362;-65
2023/09/28 02:28:38;;;;;;;21.90;9.30;;;;;;;15.30;62.70;101862.27;107613;1254;112451;-62
2023/09/28 02:31:07;;;;;;;27.30;9.80;;;;;;;15.36;62.59;101866.41;107564;1254;109776;-62
2023/09/28 02:33:35;;;;;;;33.30;10.00;;;;;;;15.40;62.59;101866.00;107607;1254;108670;-61
2023/09/28 02:36:05;;;;;;;24.30;9.70;;;;;;;15.44;62.39;101868.14;107530;1252;97841;-62
2023/09/28 02:38:33;;;;;;;33.10;9.70;;;;;;;15.48;62.36;101866.33;107568;1254;98485;-62
2023/09/28 02:41:01;;;;;;;25.70;10.20;;;;;;;15.53;62.25;101870.05;107583;1251;112463;-63
2023/09/28 02:43:31;;;;;;;32.10;8.90;;;;;;;15.56;62.04;101870.89;107605;1254;110198;-61
2023/09/28 02:45:59;;;;;;;24.50;9.90;;;;;;;15.58;62.03;101868.72;107548;1253;107625;-62
2023/09/28 02:48:29;;;;;;;23.60;10.20;;;;;;;15.58;61.67;101868.69;107512;1254;98050;-63
2023/09/28 02:50:57;;;;;;;23.20;10.70;;;;;;;15.58;61.47;101866.52;107587;1254;97829;-61
2023/09/28 02:53:26;;;;;;;28.90;9.70;;;;;;;15.58;61.23;101861.64;107558;1254;111839;-61
2023/09/28 02:55:54;;;;;;;27.40;10.40;;;;;;;15.57;60.99;101867.66;107593;1254;108783;-62
2023/09/28 02:58:24;;;;;;;24.50;10.20;;;;;;;15.56;60.70;101874.45;107612;1254;107188;-62
2023/09/28 03:00:55;;;;;;;34.30;9.00;;;;;;;15.54;60.78;101872.33;107567;1253;97822;-61
2023/09/28 03:03:24;;;;;;;24.80;9.90;;;;;;;15.51;60.79;101868.10;107602;1251;99527;-61
2023/09/28 03:05:56;;;;;;;28.50;9.80;;;;;;;15.48;60.70;101870.71;107624;1254;111569;-62
2023/09/28 03:08:25;;;;;;;27.30;10.00;;;;;;;15.44;60.71;101870.88;107607;1251;108732;-62
2023/09/28 03:10:53;;;;;;;31.50;11.90;;;;;;;15.39;60.74;101873.16;107588;1254;106320;-62
2023/09/28 03:13:25;;;;;;;37.20;10.30;;;;;;;15.31;60.76;101874.03;107557;1252;97828;-63
2023/09/28 03:15:54;;;;;;;27.50;10.20;;;;;;;15.24;60.79;101876.69;107514;1254;97798;-63
2023/09/28 03:18:23;;;;;;;30.80;10.60;;;;;;;15.19;60.81;101879.35;107599;1254;111245;-61
2023/09/28 03:20:53;;;;;;;26.90;9.60;;;;;;;15.13;61.12;101882.73;107631;1254;109606;-62
2023/09/28 03:23:21;;;;;;;20.70;10.10;;;;;;;15.08;61.25;101880.18;107579;1252;107248;-62
2023/09/28 03:25:49;;;;;;;25.00;10.00;;;;;;;14.99;61.37;101880.16;107564;1254;97741;-62
2023/09/28 03:28:17;;;;;;;24.10;10.70;;;;;;;14.94;61.50;101878.52;107570;1256;97834;-62
2023/09/28 03:30:45;;;;;;;25.10;10.10;;;;;;;14.89;61.90;101883.46;107612;1253;111933;-62
2023/09/28 03:33:14;;;;;;;22.20;9.70;;;;;;;14.82;61.87;101886.02;107583;1254;109958;-65
2023/09/28 03:35:42;;;;;;;20.60;9.00;;;;;;;14.76;62.03;101886.75;107602;1254;108157;-62
2023/09/28 03:38:12;;;;;;;28.70;9.10;;;;;;;14.72;62.31;101889.81;107597;1254;97908;-62
2023/09/28 03:40:43;;;;;;;33.30;11.10;;;;;;;14.68;62.52;101890.65;107538;1253;97845;-62
2023/09/28 03:43:11;;;;;;;21.30;9.60;;;;;;;14.66;62.44;101888.64;107571;1256;111643;-62
2023/09/28 03:45:41;;;;;;;31.20;10.80;;;;;;;14.65;62.67;101888.08;107618;1254;109224;-62
2023/09/28 03:48:10;;;;;;;26.20;9.50;;;;;;;14.64;62.89;101888.83;107593;1254;107490;-63
2023/09/28 03:50:39;;;;;;;24.80;9.30;;;;;;;14.66;62.98;101888.87;107566;1254;97896;-63
2023/09/28 03:53:07;;;;;;;28.60;9.20;;;;;;;14.66;62.99;101890.46;107614;1253;98495;-63
2023/09/28 03:55:36;;;;;;;36.40;10.20;;;;;;;14.67;62.80;101892.77;107567;1254;111712;-62
2023/09/28 03:58:04;;;;;;;31.10;8.90;;;;;;;14.69;62.84;101891.00;107560;1254;109784;-63
2023/09/28 04:00:32;;;;;;;27.90;9.80;;;;;;;14.70;63.08;101891.91;107510;1254;107110;-63
2023/09/28 04:03:01;;;;;;;29.90;9.90;;;;;;;14.74;63.34;101893.30;107592;1254;97820;-63
2023/09/28 04:05:29;;;;;;;31.40;9.00;;;;;;;14.76;63.41;101896.30;107587;1256;97825;-63
2023/09/28 04:07:57;;;;;;;42.90;9.70;;;;;;;14.78;63.63;101896.14;107582;1254;111821;-63
2023/09/28 04:10:26;;;;;;;31.80;9.10;;;;;;;14.80;63.71;101897.03;107590;1254;109315;-63
2023/09/28 04:12:54;;;;;;;34.30;10.30;;;;;;;14.85;63.97;101895.52;107554;1254;108337;-62
2023/09/28 04:15:22;;;;;;;24.40;9.70;;;;;;;14.91;63.70;101895.20;107592;1254;98001;-63
2023/09/28 04:17:51;;;;;;;31.90;10.50;;;;;;;14.96;63.51;101891.84;107532;1256;97707;-62
2023/09/28 04:20:20;;;;;;;30.00;10.30;;;;;;;15.04;63.33;101894.60;107616;1254;110490;-63
2023/09/28 04:22:48;;;;;;;30.00;10.10;;;;;;;15.10;63.27;101899.46;107575;1254;108780;-63
2023/09/28 04:25:19;;;;;;;26.30;9.40;;;;;;;15.15;63.18;101898.98;107624;1252;107972;-63
2023/09/28 04:27:49;;;;;;;24.60;9.60;;;;;;;15.17;62.86;101899.71;107566;1256;97963;-63
2023/09/28 04:30:18;;;;;;;30.40;10.80;;;;;;;15.19;62.73;101897.75;107600;1254;97728;-63
2023/09/28 04:32:54;;;;;;;30.80;9.60;;;;;;;15.21;62.52;101895.79;107585;1254;111123;-64
2023/09/28 04:35:23;;;;;;;39.50;10.70;;;;;;;15.21;62.43;101894.90;107605;1254;110880;-64
2023/09/28 04:37:51;;;;;;;37.20;11.50;;;;;;;15.22;62.29;101891.85;107630;1253;108548;-63
2023/09/28 04:40:24;;;;;;;36.10;14.40;;;;;;;15.24;62.07;101892.02;107558;1254;97844;-63
2023/09/28 04:42:53;;;;;;;38.00;11.40;;;;;;;15.28;61.84;101892.23;107619;1254;97835;-61
2023/09/28 04:45:22;;;;;;;34.10;11.60;;;;;;;15.32;61.55;101897.48;107579;1254;112801;-62
2023/09/28 04:47:50;;;;;;;31.30;10.90;;;;;;;15.36;61.43;101899.87;107616;1254;109285;-62
2023/09/28 04:50:20;;;;;;;32.60;11.00;;;;;;;15.38;61.26;101898.21;107571;1255;107316;-63
2023/09/28 04:52:49;;;;;;;34.50;10.50;;;;;;;15.42;61.28;101900.36;107586;1254;97835;-62
2023/09/28 04:55:17;;;;;;;37.90;13.00;;;;;;;15.46;61.03;101900.02;107571;1254;98382;-62
2023/09/28 04:57:45;;;;;;;43.80;12.50;;;;;;;15.48;60.61;101899.59;107588;1254;111568;-63
2023/09/28 05:00:16;;;;;;;33.30;12.30;;;;;;;15.53;60.43;101908.06;107613;1255;109246;-62
2023/09/28 05:02:48;;;;;;;32.20;12.30;;;;;;;15.56;60.08;101904.70;107548;1254;107905;-62
2023/09/28 05:05:17;;;;;;;27.90;10.90;;;;;;;15.60;59.84;101907.60;107637;1254;97829;-62
2023/09/28 05:07:46;;;;;;;27.70;11.90;;;;;;;15.61;59.55;101911.77;107658;1254;97683;-62
2023/09/28 05:10:14;;;;;;;29.50;11.90;;;;;;;15.61;59.31;101916.88;107582;1254;111950;-63
2023/09/28 05:12:43;;;;;;;35.00;13.20;;;;;;;15.62;59.27;101914.80;107569;1254;109673;-63
2023/09/28 05:15:13;;;;;;;39.40;11.10;;;;;;;15.67;59.22;101918.69;107543;1254;108149;-63
2023/09/28 05:17:42;;;;;;;36.30;10.90;;;;;;;15.72;59.00;101922.41;107530;1255;97869;-64
2023/09/28 05:20:11;;;;;;;29.10;11.20;;;;;;;15.74;58.91;101921.33;107641;1256;97734;-62
2023/09/28 05:22:40;;;;;;;35.50;10.50;;;;;;;15.80;58.83;101922.75;107563;1254;112211;-63
2023/09/28 05:25:08;;;;;;;33.20;10.90;;;;;;;15.87;58.64;101920.55;107602;1254;108955;-63
2023/09/28 05:27:36;;;;;;;38.70;10.80;;;;;;;15.93;58.66;101921.44;107517;1254;107494;-63
2023/09/28 05:30:06;;;;;;;28.70;10.90;;;;;;;16.01;58.47;101924.46;107581;1254;98614;-63
2023/09/28 05:32:34;;;;;;;38.30;12.50;;;;;;;16.10;58.20;101930.17;107603;1254;98383;-63
2023/09/28 05:35:06;;;;;;;44.40;13.10;;;;;;;16.15;58.03;101928.77;107594;1255;111763;-63
2023/09/28 05:37:35;;;;;;;41.50;11.80;;;;;;;16.18;57.69;101926.46;107566;1254;109389;-64
2023/09/28 05:40:04;;;;;;;51.50;13.50;;;;;;;16.20;57.44;101927.19;107624;1254;106851;-62
2023/09/28 05:42:35;;;;;;;42.80;12.50;;;;;;;16.24;57.35;101921.98;107553;1254;97834;-61
2023/09/28 05:45:04;;;;;;;39.10;14.40;;;;;;;16.28;57.19;101926.09;107554;1254;97726;-62
2023/09/28 05:47:34;;;;;;;49.90;11.80;;;;;;;16.33;57.10;101924.73;107607;1252;110913;-62
2023/09/28 05:50:04;;;;;;;37.10;11.00;;;;;;;16.38;56.73;101926.27;107591;1255;109106;-63
2023/09/28 05:52:33;;;;;;;33.10;10.30;;;;;;;16.41;56.34;101928.64;107552;1256;107648;-62
2023/09/28 05:55:01;;;;;;;28.80;10.90;;;;;;;16.45;55.90;101929.05;107590;1251;98001;-63
2023/09/28 05:57:29;;;;;;;38.00;12.70;;;;;;;16.48;55.99;101935.42;107568;1253;97832;-62
2023/09/28 05:59:57;;;;;;;39.90;11.30;;;;;;;16.54;55.80;101934.69;107589;1254;113377;-62
2023/09/28 06:02:25;;;;;;;36.20;10.90;;;;;;;16.60;55.58;101929.55;107577;1254;109861;-63
2023/09/28 06:04:54;;;;;;;29.10;10.70;;;;;;;16.65;55.42;101931.64;107590;1253;106703;-63
2023/09/28 06:07:23;;;;;;;37.20;11.10;;;;;;;16.70;55.26;101930.44;107591;1257;97812;-63
2023/09/28 06:09:52;;;;;;;43.10;10.10;;;;;;;16.77;55.07;101927.46;107592;1254;97886;-62
2023/09/28 06:12:21;;;;;;;37.40;10.30;;;;;;;16.77;54.75;101934.70;107462;1254;111854;-63
2023/09/28 06:14:50;;;;;;;36.00;11.40;;;;;;;16.79;54.45;101933.39;107595;1256;109791;-62
2023/09/28 06:17:19;;;;;;;37.90;10.30;;;;;;;16.80;54.38;101931.84;107508;1252;108151;-63
2023/09/28 06:19:47;;;;;;;42.10;11.90;;;;;;;16.81;54.43;101928.47;107593;1254;98384;-62
2023/09/28 06:22:25;;;;;;;36.90;11.60;;;;;;;16.85;54.68;101926.48;107572;1256;97720;-62
2023/09/28 06:24:55;;;;;;;36.80;11.50;;;;;;;16.89;54.53;101930.63;107564;1254;111741;-65
2023/09/28 06:27:25;;;;;;;31.60;10.30;;;;;;;16.89;54.32;101934.79;107549;1255;109762;-62
2023/09/28 06:29:54;;;;;;;35.50;11.80;;;;;;;16.95;54.37;101929.94;107589;1254;107436;-63
2023/09/28 06:32:22;;;;;;;29.20;11.10;;;;;;;16.99;54.25;101930.27;107605;1257;97909;-64
2023/09/28 06:34:51;;;;;;;43.90;11.70;;;;;;;17.04;54.35;101928.84;107546;1257;98357;-62
2023/09/28 06:37:20;;;;;;;31.20;11.20;;;;;;;17.12;54.24;101930.77;107540;1256;111343;-63
2023/09/28 06:39:48;;;;;;;41.90;12.00;;;;;;;17.19;54.19;101932.80;107602;1256;109668;-63
2023/09/28 06:42:16;;;;;;;41.60;11.70;;;;;;;17.27;54.14;101929.70;107533;1256;108557;-64
2023/09/28 06:45:05;;;;;;;44.20;12.30;;;;;;;17.39;54.11;101929.54;107622;1254;97840;-63
2023/09/28 06:47:34;;;;;;;38.60;11.40;;;;;;;17.49;53.70;101932.33;107562;1254;98770;-62
2023/09/28 06:50:22;;;;;;;39.50;11.80;;;;;;;17.60;53.54;101933.08;107547;1256;111750;-62
2023/09/28 06:52:51;;;;;;;37.70;11.40;;;;;;;17.70;53.17;101931.92;107509;1256;109883;-61
2023/09/28 06:55:23;;;;;;;41.90;12.10;;;;;;;17.76;53.04;101927.38;107613;1256;106140;-62
2023/09/28 06:57:52;;;;;;;38.50;12.30;;;;;;;17.80;52.86;101932.93;107590;1256;97729;-63
2023/09/28 07:00:22;;;;;;;49.70;12.00;;;;;;;17.83;52.65;101934.18;107570;1254;97723;-63
2023/09/28 07:02:51;;;;;;;40.30;12.10;;;;;;;17.91;52.62;101930.58;107634;1256;111292;-61
2023/09/28 07:05:19;;;;;;;43.00;13.30;;;;;;;17.95;52.27;101929.92;107574;1253;109584;-62
2023/09/28 07:07:48;;;;;;;35.50;12.10;;;;;;;18.03;52.19;101925.41;107516;1254;108146;-62
2023/09/28 07:10:17;;;;;;;39.80;12.20;;;;;;;18.14;52.09;101929.17;107562;1256;98695;-62
2023/09/28 07:12:46;;;;;;;43.70;12.60;;;;;;;18.22;51.96;101929.45;107578;1257;97831;-62
2023/09/28 07:15:15;;;;;;;36.50;12.50;;;;;;;18.32;51.75;101930.58;107551;1254;111489;-63
2023/09/28 07:17:44;;;;;;;30.00;12.20;;;;;;;18.44;51.65;101930.25;107584;1254;109128;-62
2023/09/28 07:20:14;;;;;;;41.60;12.90;;;;;;;18.55;51.40;101931.16;107567;1255;107707;-62
2023/09/28 07:22:42;;;;;;;35.90;11.50;;;;;;;18.66;51.08;101931.44;107574;1255;97821;-61
2023/09/28 07:25:10;;;;;;;44.40;12.70;;;;;;;18.79;51.06;101928.27;107492;1254;97752;-62
2023/09/28 07:27:41;;;;;;;33.70;10.80;;;;;;;18.90;50.72;101926.18;107510;1254;110739;-62
2023/09/28 07:30:11;;;;;;;29.50;11.70;;;;;;;19.01;50.25;101923.56;107597;1254;108789;-62
2023/09/28 07:32:40;;;;;;;34.30;12.40;;;;;;;19.14;49.94;101923.73;107504;1253;106580;-62
2023/09/28 07:35:11;;;;;;;50.20;12.70;;;;;;;19.26;49.79;101918.16;107581;1257;97850;-62
2023/09/28 07:37:42;;;;;;;46.80;11.60;;;;;;;19.41;49.49;101919.70;107494;1257;98399;-62
2023/09/28 07:40:12;;;;;;;33.90;10.80;;;;;;;19.57;49.15;101920.91;107594;1254;110638;-63
2023/09/28 07:42:43;;;;;;;38.60;11.40;;;;;;;19.69;48.63;101917.17;107582;1255;108533;-63
2023/09/28 07:45:13;;;;;;;42.50;11.50;;;;;;;19.83;48.70;101921.53;107569;1257;108191;-63
2023/09/28 07:47:42;;;;;;;41.60;11.70;;;;;;;19.99;48.74;101912.48;107556;1254;97729;-62
2023/09/28 07:50:14;;;;;;;37.70;11.90;;;;;;;20.17;47.92;101915.67;107557;1256;97810;-62
2023/09/28 07:52:44;;;;;;;35.00;11.30;;;;;;;20.33;47.33;101905.68;107554;1255;112249;-62
2023/09/28 07:55:14;;;;;;;36.20;11.50;;;;;;;20.48;46.77;101902.89;107525;1254;110679;-63
2023/09/28 07:57:42;;;;;;;36.80;11.00;;;;;;;20.64;46.57;101901.79;107532;1257;107431;-63
2023/09/28 08:00:14;;;;;;;31.90;11.20;;;;;;;20.80;46.35;101899.27;107524;1252;97820;-62
2023/09/28 08:02:42;;;;;;;28.60;10.80;;;;;;;20.95;46.09;101893.54;107611;1254;97823;-62
2023/09/28 08:05:12;;;;;;;28.70;10.40;;;;;;;21.12;46.42;101895.27;107539;1257;111913;-62
2023/09/28 08:07:42;;;;;;;34.80;11.10;;;;;;;21.29;45.44;101890.86;107537;1254;108614;-63
2023/09/28 08:10:22;;;;;;;34.70;11.20;;;;;;;21.48;45.15;101892.69;107529;1256;108245;-63
2023/09/28 08:12:51;;;;;;;32.00;10.60;;;;;;;21.67;44.97;101890.84;107504;1254;97973;-62
2023/09/28 08:15:20;;;;;;;34.10;10.40;;;;;;;21.84;44.29;101894.69;107516;1255;97837;-62
2023/09/28 08:18:03;;;;;;;25.80;10.20;;;;;;;22.05;43.05;101896.17;107511;1255;112142;-63
2023/09/28 08:20:33;;;;;;;37.10;10.10;;;;;;;22.23;42.43;101894.91;107558;1252;108590;-64
2023/09/28 08:23:06;;;;;;;36.90;10.50;;;;;;;22.40;42.71;101893.92;107450;1256;108553;-62
2023/09/28 08:25:35;;;;;;;31.00;9.80;;;;;;;22.63;43.01;101891.30;107542;1254;97899;-63
2023/09/28 08:28:04;;;;;;;31.90;10.60;;;;;;;22.85;41.97;101892.91;107476;1254;97839;-62
2023/09/28 08:30:33;;;;;;;35.70;11.10;;;;;;;23.09;41.12;101892.54;107598;1254;109716;-63
2023/09/28 08:33:01;;;;;;;27.60;10.10;;;;;;;23.30;41.19;101888.52;107557;1254;109977;-62
2023/09/28 08:35:31;;;;;;;37.80;9.60;;;;;;;23.52;40.71;101887.56;107556;1255;107425;-63
2023/09/28 08:38:00;;;;;;;27.00;9.60;;;;;;;23.74;39.74;101884.60;107516;1253;99297;-61
2023/09/28 08:40:30;;;;;;;26.90;9.90;;;;;;;23.92;39.25;101881.31;107591;1256;98462;-61
2023/09/28 08:43:03;;;;;;;23.60;9.30;;;;;;;24.16;38.86;101875.77;107542;1254;110841;-62
2023/09/28 08:45:32;;;;;;;29.90;8.50;;;;;;;24.42;38.59;101873.88;107561;1257;108877;-62
2023/09/28 08:48:02;;;;;;;32.90;9.20;;;;;;;24.68;37.43;101866.77;107402;1254;106920;-62
2023/09/28 08:50:37;;;;;;;24.50;8.60;;;;;;;25.00;37.71;101865.09;107478;1254;97909;-62
2023/09/28 08:53:06;;;;;;;;;;;;;;;25.32;37.68;101857.36;107521;1257;97851;-63
2023/09/28 08:55:36;;;;;;;32.60;9.40;;;;;;;25.66;37.01;101857.60;107500;1255;111514;-66
2023/09/28 08:58:06;;;;;;;33.10;8.10;;;;;;;25.97;35.56;101853.19;107598;1254;109382;-62
2023/09/28 09:00:36;;;;;;;22.20;7.80;;;;;;;26.28;35.07;101850.89;107496;1254;107248;-62
2023/09/28 09:03:07;;;;;;;21.70;8.40;;;;;;;26.60;34.88;101844.09;107622;1254;98263;-63
2023/09/28 09:05:39;;;;;;;26.10;7.70;;;;;;;26.95;33.86;101837.31;107510;1256;97925;-62
2023/09/28 09:08:09;;;;;;;19.90;6.70;;;;;;;27.34;33.60;101832.13;107623;1254;112626;-64
2023/09/28 09:10:40;;;;;;;15.90;7.30;;;;;;;27.82;33.44;101827.00;107451;1254;109275;-63
2023/09/28 09:13:16;;;;;;;27.50;6.70;;;;;;;28.42;32.19;101822.30;107583;1251;106489;-62
2023/09/28 09:15:45;;;;;;;43.90;6.80;;;;;;;29.21;31.17;101813.02;107550;1254;98452;-62
2023/09/28 09:18:21;;;;;;;20.10;6.70;;;;;;;29.97;30.37;101817.68;107576;1251;97723;-63
2023/09/28 09:20:57;;;;;;;30.30;7.50;;;;;;;30.75;29.23;101820.95;107631;1251;112321;-62
2023/09/28 09:23:28;;;;;;;19.10;5.70;;;;;;;31.45;28.48;101811.48;107558;1254;109701;-62
2023/09/28 09:25:57;;;;;;;17.90;6.10;;;;;;;32.12;26.62;101800.91;107580;1251;107604;-62
2023/09/28 09:28:32;;;;;;;38.50;8.70;;;;;;;32.63;26.70;101800.15;107491;1254;97837;-63
2023/09/28 09:31:01;;;;;;;41.50;8.00;;;;;;;33.29;26.59;101795.95;107611;1254;97851;-62
2023/09/28 09:33:30;;;;;;;34.70;7.60;;;;;;;33.84;26.08;101794.54;107654;1254;111848;-61
2023/09/28 09:35:59;;;;;;;14.70;5.70;;;;;;;34.40;25.54;101796.55;107560;1254;109614;-61
2023/09/28 09:38:31;;;;;;;36.90;7.30;;;;;;;34.96;24.83;101797.64;107528;1254;107624;-61
2023/09/28 09:41:02;;;;;;;24.30;6.00;;;;;;;35.51;23.94;101802.67;107567;1254;97904;-64
2023/09/28 09:43:34;;;;;;;19.50;5.30;;;;;;;35.96;23.04;101795.73;107529;1253;98378;-63
2023/09/28 09:46:03;;;;;;;;;;;;;;;36.24;20.69;101795.55;107610;1254;109662;-61
2023/09/28 09:48:50;;;;;;;31.40;5.20;;;;;;;36.42;19.53;101793.71;107592;1254;109951;-62
2023/09/28 09:51:19;;;;;;;30.90;5.10;;;;;;;36.62;19.43;101788.84;107632;1256;107129;-63
2023/09/28 09:53:47;;;;;;;23.50;4.50;;;;;;;36.91;18.78;101788.73;107587;1251;97861;-62
2023/09/28 09:56:16;;;;;;;26.20;5.00;;;;;;;37.21;18.60;101784.20;107554;1253;97841;-62
2023/09/28 09:58:49;;;;;;;8.50;3.80;;;;;;;37.53;18.61;101780.86;107545;1251;111969;-62
2023/09/28 10:01:19;;;;;;;16.60;4.40;;;;;;;37.87;18.50;101775.92;107580;1254;109182;-63
2023/09/28 10:03:52;;;;;;;13.60;4.90;;;;;;;38.30;17.67;101777.91;107526;1254;108051;-62
2023/09/28 10:06:22;;;;;;;13.90;4.70;;;;;;;38.39;16.90;101770.77;107554;1253;97851;-62
2023/09/28 10:08:51;;;;;;;16.50;5.30;;;;;;;38.40;15.93;101771.14;107352;1253;273432;-61
2023/09/28 10:11:21;;;;;;;14.30;5.00;;;;;;;38.40;16.69;101768.56;107541;1251;110727;-62
2023/09/28 10:13:51;;;;;;;30.60;5.40;;;;;;;38.67;16.50;101765.38;107563;1256;109973;-62
2023/09/28 10:16:21;;;;;;;9.70;4.30;;;;;;;38.83;16.07;101765.61;107684;1254;108786;-63
2023/09/28 10:18:51;;;;;;;13.40;4.20;;;;;;;39.01;15.96;101767.24;107460;1254;97873;-62
2023/09/28 10:21:21;;;;;;;11.30;4.30;;;;;;;39.15;15.44;101764.19;107618;1254;98462;-62
2023/09/28 10:23:55;;;;;;;9.50;3.90;;;;;;;39.38;15.73;101755.71;107511;1253;111179;-63
2023/09/28 10:26:29;;;;;;;14.50;4.40;;;;;;;39.76;15.36;101758.95;107565;1254;109706;-62
2023/09/28 10:29:08;;;;;;;12.40;4.60;;;;;;;40.03;15.80;101758.76;107573;1252;108141;-62
2023/09/28 10:31:39;;;;;;;11.70;3.90;;;;;;;40.11;14.34;101754.22;107624;1254;97853;-62
2023/09/28 10:34:27;;;;;;;14.20;3.90;;;;;;;39.92;14.32;101750.31;107636;1254;97712;-62
2023/09/28 10:37:09;;;;;;;8.50;3.60;;;;;;;39.84;14.59;101755.70;107646;1251;110973;-62
2023/09/28 10:39:38;;;;;;;7.70;4.00;;;;;;;40.10;14.57;101747.01;107549;1251;109880;-62
2023/09/28 10:42:12;;;;;;;14.70;3.60;;;;;;;40.32;14.16;101747.13;107512;1254;107702;-61
2023/09/28 10:44:52;;;;;;;13.60;4.00;;;;;;;40.51;14.10;101742.14;107518;1254;97886;-63
2023/09/28 10:47:22;;;;;;;10.70;4.80;;;;;;;40.50;12.98;101737.98;107600;1251;97734;-63
2023/09/28 10:50:04;;;;;;;12.40;3.90;;;;;;;40.39;13.93;101734.90;107630;1251;112666;-63
2023/09/28 10:52:33;;;;;;;12.70;4.40;;;;;;;40.68;14.11;101734.92;107670;1251;108302;-62
2023/09/28 10:55:01;;;;;;;10.10;3.60;;;;;;;40.86;14.18;101730.30;107604;1256;108419;-62
2023/09/28 10:57:32;;;;;;;13.50;4.80;;;;;;;41.05;13.66;101731.39;107504;1251;97736;-62
2023/09/28 11:00:04;;;;;;;13.70;4.60;;;;;;;41.17;13.68;101723.70;107611;1254;97806;-62
2023/09/28 11:02:36;;;;;;;6.30;4.40;;;;;;;41.35;13.57;101722.81;107591;1252;112309;-63
2023/09/28 11:05:07;;;;;;;16.70;5.30;;;;;;;41.63;13.01;101720.59;107585;1254;109353;-62
2023/09/28 11:07:38;;;;;;;15.70;4.70;;;;;;;41.49;13.23;101720.70;107623;1254;108584;-64
2023/09/28 11:10:08;;;;;;;17.70;4.40;;;;;;;41.43;13.10;101718.24;107543;1254;97854;-62
2023/09/28 11:12:37;;;;;;;11.70;4.50;;;;;;;41.22;12.70;101720.64;107606;1256;98567;-62